sensor_id;sensor_type;location;lat;lon;timestamp;temperature;humidity
46608;DHT22;32330;51.936;7.184;2023-08-08T03:49:00;13.60;99.90
46608;DHT22;32330;51.936;7.184;2023-08-08T03:51:30;13.60;99.90
46608;DHT22;32330;51.936;7.184;2023-08-08T03:53:57;13.60;99.90
46608;DHT22;32330;51.936;7.184;2023-08-08T03:56:24;13.60;99.90
46608;DHT22;32330;51.936;7.184;2023-08-08T03:58:53;13.60;99.90
46608;DHT22;32330;51.936;7.184;2023-08-08T04:01:21;13.60;99.90
46608;DHT22;32330;51.936;7.184;2023-08-08T04:03:48;13.60;99.90
46608;DHT22;32330;51.936;7.184;2023-08-08T04:06:16;13.60;99.90
46608;DHT22;32330;51.936;7.184;2023-08-08T04:08:43;13.60;99.90
46608;DHT22;32330;51.936;7.184;2023-08-08T04:11:10;13.50;99.90
46608;DHT22;32330;51.936;7.184;2023-08-08T04:13:37;13.50;99.90
46608;DHT22;32330;51.936;7.184;2023-08-08T04:16:04;13.50;99.90
46608;DHT22;32330;51.936;7.184;2023-08-08T04:18:31;13.50;99.90
46608;DHT22;32330;51.936;7.184;2023-08-08T04:20:58;13.50;99.90
46608;DHT22;32330;51.936;7.184;2023-08-08T04:23:26;13.50;99.90
46608;DHT22;32330;51.936;7.184;2023-08-08T04:25:53;13.50;99.90
46608;DHT22;32330;51.936;7.184;2023-08-08T04:28:20;13.50;99.90
46608;DHT22;32330;51.936;7.184;2023-08-08T04:30:47;13.50;99.90
46608;DHT22;32330;51.936;7.184;2023-08-08T04:33:14;13.50;99.90
46608;DHT22;32330;51.936;7.184;2023-08-08T04:35:42;13.50;99.90
46608;DHT22;32330;51.936;7.184;2023-08-08T04:38:09;13.50;99.90
46608;DHT22;32330;51.936;7.184;2023-08-08T04:40:37;13.60;99.90
46608;DHT22;32330;51.936;7.184;2023-08-08T04:43:04;13.50;99.90
46608;DHT22;32330;51.936;7.184;2023-08-08T04:45:31;13.60;99.90
46608;DHT22;32330;51.936;7.184;2023-08-08T04:47:59;13.50;99.90
46608;DHT22;32330;51.936;7.184;2023-08-08T04:50:26;13.60;99.90
46608;DHT22;32330;51.936;7.184;2023-08-08T04:52:53;13.70;99.90
46608;DHT22;32330;51.936;7.184;2023-08-08T04:55:20;13.60;99.90
46608;DHT22;32330;51.936;7.184;2023-08-08T04:57:49;13.70;99.90
46608;DHT22;32330;51.936;7.184;2023-08-08T05:00:16;13.70;99.90
46608;DHT22;32330;51.936;7.184;2023-08-08T05:02:43;13.60;99.90
46608;DHT22;32330;51.936;7.184;2023-08-08T05:05:10;13.70;99.90
46608;DHT22;32330;51.936;7.184;2023-08-08T05:07:37;13.70;99.90
46608;DHT22;32330;51.936;7.184;2023-08-08T05:10:05;13.70;99.90
46608;DHT22;32330;51.936;7.184;2023-08-08T05:12:32;13.70;99.90
46608;DHT22;32330;51.936;7.184;2023-08-08T05:15:00;13.70;99.90
46608;DHT22;32330;51.936;7.184;2023-08-08T05:17:30;13.80;99.90
46608;DHT22;32330;51.936;7.184;2023-08-08T05:19:57;13.90;99.90
46608;DHT22;32330;51.936;7.184;2023-08-08T05:22:23;13.80;99.90
46608;DHT22;32330;51.936;7.184;2023-08-08T05:24:50;13.90;99.90
46608;DHT22;32330;51.936;7.184;2023-08-08T05:27:17;13.90;99.90
46608;DHT22;32330;51.936;7.184;2023-08-08T05:29:44;14.00;99.90
46608;DHT22;32330;51.936;7.184;2023-08-08T05:32:12;14.00;99.90
46608;DHT22;32330;51.936;7.184;2023-08-08T05:34:39;14.00;99.90
46608;DHT22;32330;51.936;7.184;2023-08-08T05:37:06;14.10;99.90
46608;DHT22;32330;51.936;7.184;2023-08-08T05:39:33;14.00;99.90
46608;DHT22;32330;51.936;7.184;2023-08-08T05:42:01;14.10;99.90
46608;DHT22;32330;51.936;7.184;2023-08-08T05:44:28;14.10;99.90
46608;DHT22;32330;51.936;7.184;2023-08-08T05:46:54;14.20;99.90
46608;DHT22;32330;51.936;7.184;2023-08-08T05:49:23;14.10;99.90
46608;DHT22;32330;51.936;7.184;2023-08-08T05:51:50;14.20;99.90
46608;DHT22;32330;51.936;7.184;2023-08-08T05:54:17;14.30;99.90
46608;DHT22;32330;51.936;7.184;2023-08-08T05:56:43;14.40;99.90
46608;DHT22;32330;51.936;7.184;2023-08-08T05:59:10;14.40;99.90
46608;DHT22;32330;51.936;7.184;2023-08-08T06:01:37;14.40;99.90
46608;DHT22;32330;51.936;7.184;2023-08-08T06:04:04;14.50;99.90
46608;DHT22;32330;51.936;7.184;2023-08-08T06:06:33;14.50;99.90
46608;DHT22;32330;51.936;7.184;2023-08-08T06:09:00;14.60;99.90
46608;DHT22;32330;51.936;7.184;2023-08-08T06:11:27;14.60;99.90
46608;DHT22;32330;51.936;7.184;2023-08-08T06:13:54;14.70;99.90
46608;DHT22;32330;51.936;7.184;2023-08-08T06:16:21;14.80;99.90
46608;DHT22;32330;51.936;7.184;2023-08-08T06:18:48;14.80;99.90
46608;DHT22;32330;51.936;7.184;2023-08-08T06:21:15;14.90;99.90
46608;DHT22;32330;51.936;7.184;2023-08-08T06:23:43;14.80;99.90
46608;DHT22;32330;51.936;7.184;2023-08-08T06:26:10;14.90;99.90
46608;DHT22;32330;51.936;7.184;2023-08-08T06:28:37;14.90;99.90
46608;DHT22;32330;51.936;7.184;2023-08-08T06:31:04;14.90;99.90
46608;DHT22;32330;51.936;7.184;2023-08-08T06:33:31;14.90;99.90
46608;DHT22;32330;51.936;7.184;2023-08-08T06:35:59;15.00;99.90
46608;DHT22;32330;51.936;7.184;2023-08-08T06:38:26;15.00;99.90
46608;DHT22;32330;51.936;7.184;2023-08-08T06:40:55;15.00;99.90
46608;DHT22;32330;51.936;7.184;2023-08-08T06:43:23;15.10;99.90
46608;DHT22;32330;51.936;7.184;2023-08-08T06:45:50;15.00;99.90
46608;DHT22;32330;51.936;7.184;2023-08-08T06:48:17;15.10;99.90
46608;DHT22;32330;51.936;7.184;2023-08-08T06:50:43;15.20;99.90
46608;DHT22;32330;51.936;7.184;2023-08-08T06:53:10;15.20;99.90
46608;DHT22;32330;51.936;7.184;2023-08-08T06:55:37;15.20;99.90
46608;DHT22;32330;51.936;7.184;2023-08-08T06:58:06;15.30;99.90
46608;DHT22;32330;51.936;7.184;2023-08-08T07:00:33;15.20;99.90
46608;DHT22;32330;51.936;7.184;2023-08-08T07:03:00;15.20;99.90
46608;DHT22;32330;51.936;7.184;2023-08-08T07:05:26;15.30;99.90
46608;DHT22;32330;51.936;7.184;2023-08-08T07:07:54;15.40;99.90
46608;DHT22;32330;51.936;7.184;2023-08-08T07:10:21;15.30;99.90
46608;DHT22;32330;51.936;7.184;2023-08-08T07:12:48;15.20;99.90
46608;DHT22;32330;51.936;7.184;2023-08-08T07:15:17;15.20;99.90
46608;DHT22;32330;51.936;7.184;2023-08-08T07:17:44;15.30;99.90
46608;DHT22;32330;51.936;7.184;2023-08-08T07:20:11;15.20;99.90
46608;DHT22;32330;51.936;7.184;2023-08-08T07:22:40;15.20;99.90
46608;DHT22;32330;51.936;7.184;2023-08-08T07:25:08;15.20;99.90
46608;DHT22;32330;51.936;7.184;2023-08-08T07:27:35;15.20;99.90
46608;DHT22;32330;51.936;7.184;2023-08-08T07:30:03;15.10;99.90
46608;DHT22;32330;51.936;7.184;2023-08-08T07:32:31;15.20;99.90
46608;DHT22;32330;51.936;7.184;2023-08-08T07:34:58;15.30;99.90
46608;DHT22;32330;51.936;7.184;2023-08-08T07:37:27;15.30;99.90
46608;DHT22;32330;51.936;7.184;2023-08-08T07:39:53;15.30;99.90
46608;DHT22;32330;51.936;7.184;2023-08-08T07:42:20;15.40;99.90
46608;DHT22;32330;51.936;7.184;2023-08-08T07:44:47;15.60;99.90
46608;DHT22;32330;51.936;7.184;2023-08-08T07:47:14;15.60;99.90
46608;DHT22;32330;51.936;7.184;2023-08-08T07:49:43;15.60;99.90
46608;DHT22;32330;51.936;7.184;2023-08-08T07:52:10;15.60;99.90
46608;DHT22;32330;51.936;7.184;2023-08-08T07:54:37;15.60;99.90
46608;DHT22;32330;51.936;7.184;2023-08-08T07:57:04;15.60;99.90
46608;DHT22;32330;51.936;7.184;2023-08-08T07:59:31;15.60;99.90
46608;DHT22;32330;51.936;7.184;2023-08-08T08:01:58;15.80;99.90
46608;DHT22;32330;51.936;7.184;2023-08-08T08:04:45;16.00;99.90
46608;DHT22;32330;51.936;7.184;2023-08-08T08:07:12;15.90;99.90
46608;DHT22;32330;51.936;7.184;2023-08-08T08:09:39;16.20;99.90
46608;DHT22;32330;51.936;7.184;2023-08-08T08:12:08;16.40;99.90
46608;DHT22;32330;51.936;7.184;2023-08-08T08:14:35;16.60;99.90
46608;DHT22;32330;51.936;7.184;2023-08-08T08:17:02;16.60;99.90
46608;DHT22;32330;51.936;7.184;2023-08-08T08:19:29;16.80;99.90
46608;DHT22;32330;51.936;7.184;2023-08-08T08:21:58;16.90;99.90
46608;DHT22;32330;51.936;7.184;2023-08-08T08:24:24;17.10;99.90
46608;DHT22;32330;51.936;7.184;2023-08-08T08:26:51;17.40;99.90
46608;DHT22;32330;51.936;7.184;2023-08-08T08:29:18;17.50;99.90
46608;DHT22;32330;51.936;7.184;2023-08-08T08:31:45;17.60;95.80
46608;DHT22;32330;51.936;7.184;2023-08-08T08:34:12;17.70;90.70
46608;DHT22;32330;51.936;7.184;2023-08-08T08:36:39;17.80;77.00
46608;DHT22;32330;51.936;7.184;2023-08-08T08:39:07;17.60;73.70
46608;DHT22;32330;51.936;7.184;2023-08-08T08:41:35;17.80;89.40
46608;DHT22;32330;51.936;7.184;2023-08-08T08:44:04;18.20;82.00
46608;DHT22;32330;51.936;7.184;2023-08-08T08:46:31;18.00;58.00
46608;DHT22;32330;51.936;7.184;2023-08-08T08:48:59;17.90;70.10
46608;DHT22;32330;51.936;7.184;2023-08-08T08:51:26;18.10;68.70
46608;DHT22;32330;51.936;7.184;2023-08-08T08:53:54;17.90;45.10
46608;DHT22;32330;51.936;7.184;2023-08-08T08:56:22;17.60;38.00
46608;DHT22;32330;51.936;7.184;2023-08-08T08:58:50;17.50;46.00
46608;DHT22;32330;51.936;7.184;2023-08-08T09:01:18;17.40;44.80
46608;DHT22;32330;51.936;7.184;2023-08-08T09:03:45;17.40;58.30
46608;DHT22;32330;51.936;7.184;2023-08-08T09:06:12;17.90;45.00
46608;DHT22;32330;51.936;7.184;2023-08-08T09:08:39;18.30;49.60
46608;DHT22;32330;51.936;7.184;2023-08-08T09:11:06;18.50;30.10
46608;DHT22;32330;51.936;7.184;2023-08-08T09:13:37;18.70;1.90
46608;DHT22;32330;51.936;7.184;2023-08-08T09:16:06;18.70;1.00
46608;DHT22;32330;51.936;7.184;2023-08-08T09:18:34;18.90;1.00
46608;DHT22;32330;51.936;7.184;2023-08-08T09:21:03;19.00;1.00
46608;DHT22;32330;51.936;7.184;2023-08-08T09:23:31;19.10;1.00
46608;DHT22;32330;51.936;7.184;2023-08-08T09:25:58;19.20;1.00
46608;DHT22;32330;51.936;7.184;2023-08-08T09:28:25;19.30;99.90
46608;DHT22;32330;51.936;7.184;2023-08-08T09:30:54;19.20;99.90
46608;DHT22;32330;51.936;7.184;2023-08-08T09:33:21;19.40;99.90
46608;DHT22;32330;51.936;7.184;2023-08-08T09:35:48;19.60;99.90
46608;DHT22;32330;51.936;7.184;2023-08-08T09:38:15;19.40;99.90
46608;DHT22;32330;51.936;7.184;2023-08-08T09:40:42;19.60;99.90
46608;DHT22;32330;51.936;7.184;2023-08-08T09:43:09;19.80;99.90
46608;DHT22;32330;51.936;7.184;2023-08-08T09:45:38;19.90;99.90
46608;DHT22;32330;51.936;7.184;2023-08-08T09:48:08;19.90;99.90
46608;DHT22;32330;51.936;7.184;2023-08-08T09:50:35;20.20;99.90
46608;DHT22;32330;51.936;7.184;2023-08-08T09:53:03;20.40;99.90
46608;DHT22;32330;51.936;7.184;2023-08-08T09:55:30;20.60;99.90
46608;DHT22;32330;51.936;7.184;2023-08-08T09:57:59;20.80;99.90
46608;DHT22;32330;51.936;7.184;2023-08-08T10:00:27;20.60;99.90
46608;DHT22;32330;51.936;7.184;2023-08-08T10:02:56;20.10;85.40
46608;DHT22;32330;51.936;7.184;2023-08-08T10:05:27;19.70;98.10
46608;DHT22;32330;51.936;7.184;2023-08-08T10:07:54;20.10;56.90
46608;DHT22;32330;51.936;7.184;2023-08-08T10:10:22;20.10;99.90
46608;DHT22;32330;51.936;7.184;2023-08-08T10:12:49;20.00;99.90
46608;DHT22;32330;51.936;7.184;2023-08-08T10:15:16;19.70;1.00
46608;DHT22;32330;51.936;7.184;2023-08-08T10:17:43;20.10;99.90
46608;DHT22;32330;51.936;7.184;2023-08-08T10:20:11;20.50;63.40
46608;DHT22;32330;51.936;7.184;2023-08-08T10:22:43;20.80;99.90
46608;DHT22;32330;51.936;7.184;2023-08-08T10:25:18;20.80;99.90
46608;DHT22;32330;51.936;7.184;2023-08-08T10:27:46;20.60;99.90
46608;DHT22;32330;51.936;7.184;2023-08-08T10:30:13;20.40;99.90
46608;DHT22;32330;51.936;7.184;2023-08-08T10:32:42;20.30;99.90
46608;DHT22;32330;51.936;7.184;2023-08-08T10:35:11;20.30;99.90
46608;DHT22;32330;51.936;7.184;2023-08-08T10:37:38;20.60;99.90
46608;DHT22;32330;51.936;7.184;2023-08-08T10:40:08;20.60;96.70
46608;DHT22;32330;51.936;7.184;2023-08-08T10:42:44;20.90;99.90
46608;DHT22;32330;51.936;7.184;2023-08-08T10:45:13;21.00;73.10
46608;DHT22;32330;51.936;7.184;2023-08-08T10:47:41;21.10;1.00
46608;DHT22;32330;51.936;7.184;2023-08-08T10:50:10;21.10;99.90
46608;DHT22;32330;51.936;7.184;2023-08-08T10:52:49;21.30;1.00
46608;DHT22;32330;51.936;7.184;2023-08-08T10:55:22;21.40;99.90
46608;DHT22;32330;51.936;7.184;2023-08-08T10:57:57;21.40;99.90
46608;DHT22;32330;51.936;7.184;2023-08-08T11:00:27;21.40;99.90
46608;DHT22;32330;51.936;7.184;2023-08-08T11:02:56;21.50;99.90
46608;DHT22;32330;51.936;7.184;2023-08-08T11:05:24;21.10;99.90
46608;DHT22;32330;51.936;7.184;2023-08-08T11:07:52;21.30;99.90
46608;DHT22;32330;51.936;7.184;2023-08-08T11:10:21;21.10;99.90
46608;DHT22;32330;51.936;7.184;2023-08-08T11:12:54;21.40;99.90
46608;DHT22;32330;51.936;7.184;2023-08-08T11:15:21;21.50;99.90
46608;DHT22;32330;51.936;7.184;2023-08-08T11:17:48;21.50;99.90
46608;DHT22;32330;51.936;7.184;2023-08-08T11:20:15;21.70;99.90
46608;DHT22;32330;51.936;7.184;2023-08-08T11:22:42;21.50;56.50
46608;DHT22;32330;51.936;7.184;2023-08-08T11:25:09;21.60;99.90
46608;DHT22;32330;51.936;7.184;2023-08-08T11:27:38;21.80;56.00
46608;DHT22;32330;51.936;7.184;2023-08-08T11:30:06;21.90;33.40
46608;DHT22;32330;51.936;7.184;2023-08-08T11:32:33;21.90;1.00
46608;DHT22;32330;51.936;7.184;2023-08-08T11:35:01;21.80;1.00
46608;DHT22;32330;51.936;7.184;2023-08-08T11:37:28;21.80;99.90
46608;DHT22;32330;51.936;7.184;2023-08-08T11:39:55;21.70;99.90
46608;DHT22;32330;51.936;7.184;2023-08-08T11:42:22;22.00;99.90
46608;DHT22;32330;51.936;7.184;2023-08-08T11:44:54;22.10;99.90
46608;DHT22;32330;51.936;7.184;2023-08-08T11:47:27;22.00;99.90
46608;DHT22;32330;51.936;7.184;2023-08-08T11:49:57;21.90;99.90
46608;DHT22;32330;51.936;7.184;2023-08-08T11:52:24;21.90;99.90
46608;DHT22;32330;51.936;7.184;2023-08-08T11:54:51;21.90;99.90
46608;DHT22;32330;51.936;7.184;2023-08-08T11:57:18;22.10;99.90
46608;DHT22;32330;51.936;7.184;2023-08-08T11:59:48;22.00;99.90
46608;DHT22;32330;51.936;7.184;2023-08-08T12:02:16;21.70;99.90
46608;DHT22;32330;51.936;7.184;2023-08-08T12:04:44;21.70;99.90
46608;DHT22;32330;51.936;7.184;2023-08-08T12:07:11;21.30;99.90
46608;DHT22;32330;51.936;7.184;2023-08-08T12:09:39;21.20;99.90
46608;DHT22;32330;51.936;7.184;2023-08-08T12:12:08;21.80;99.90
46608;DHT22;32330;51.936;7.184;2023-08-08T12:14:37;22.10;99.90
46608;DHT22;32330;51.936;7.184;2023-08-08T12:17:04;22.30;99.90
46608;DHT22;32330;51.936;7.184;2023-08-08T12:19:32;22.30;99.90
46608;DHT22;32330;51.936;7.184;2023-08-08T12:21:59;22.30;99.90
46608;DHT22;32330;51.936;7.184;2023-08-08T12:24:26;22.20;99.90
46608;DHT22;32330;51.936;7.184;2023-08-08T12:26:53;22.30;99.90
46608;DHT22;32330;51.936;7.184;2023-08-08T12:29:20;22.50;99.90
46608;DHT22;32330;51.936;7.184;2023-08-08T12:31:48;22.40;99.90
46608;DHT22;32330;51.936;7.184;2023-08-08T12:34:15;22.40;99.90
46608;DHT22;32330;51.936;7.184;2023-08-08T12:36:43;22.00;99.90
46608;DHT22;32330;51.936;7.184;2023-08-08T12:39:13;21.50;99.90
46608;DHT22;32330;51.936;7.184;2023-08-08T12:41:40;21.30;99.90
46608;DHT22;32330;51.936;7.184;2023-08-08T12:44:07;21.80;99.90
46608;DHT22;32330;51.936;7.184;2023-08-08T12:46:34;22.20;99.90
46608;DHT22;32330;51.936;7.184;2023-08-08T12:49:01;22.30;99.90
46608;DHT22;32330;51.936;7.184;2023-08-08T12:51:28;22.30;99.90
46608;DHT22;32330;51.936;7.184;2023-08-08T12:53:56;22.60;99.90
46608;DHT22;32330;51.936;7.184;2023-08-08T12:56:23;22.60;99.90
46608;DHT22;32330;51.936;7.184;2023-08-08T12:58:50;22.30;99.90
46608;DHT22;32330;51.936;7.184;2023-08-08T13:01:17;22.50;99.90
46608;DHT22;32330;51.936;7.184;2023-08-08T13:03:44;22.60;99.90
46608;DHT22;32330;51.936;7.184;2023-08-08T13:06:12;22.40;99.90
46608;DHT22;32330;51.936;7.184;2023-08-08T13:08:39;22.40;99.90
46608;DHT22;32330;51.936;7.184;2023-08-08T13:11:07;21.90;99.90
46608;DHT22;32330;51.936;7.184;2023-08-08T13:13:34;21.60;99.90
46608;DHT22;32330;51.936;7.184;2023-08-08T13:16:01;21.90;99.90
46608;DHT22;32330;51.936;7.184;2023-08-08T13:18:29;22.10;99.90
46608;DHT22;32330;51.936;7.184;2023-08-08T13:20:56;22.40;99.90
46608;DHT22;32330;51.936;7.184;2023-08-08T13:23:22;22.30;99.90
46608;DHT22;32330;51.936;7.184;2023-08-08T13:25:51;22.20;99.90
46608;DHT22;32330;51.936;7.184;2023-08-08T13:28:19;22.30;99.90
46608;DHT22;32330;51.936;7.184;2023-08-08T13:30:46;22.50;99.90
46608;DHT22;32330;51.936;7.184;2023-08-08T13:33:13;22.70;99.90
46608;DHT22;32330;51.936;7.184;2023-08-08T13:35:40;22.80;99.90
46608;DHT22;32330;51.936;7.184;2023-08-08T13:38:07;23.00;99.90
46608;DHT22;32330;51.936;7.184;2023-08-08T13:40:40;23.30;99.90
46608;DHT22;32330;51.936;7.184;2023-08-08T13:43:07;23.40;99.90
46608;DHT22;32330;51.936;7.184;2023-08-08T13:45:35;23.10;99.90
46608;DHT22;32330;51.936;7.184;2023-08-08T13:48:03;23.30;99.90
46608;DHT22;32330;51.936;7.184;2023-08-08T13:50:31;23.20;99.90
46608;DHT22;32330;51.936;7.184;2023-08-08T13:52:58;23.00;99.90
46608;DHT22;32330;51.936;7.184;2023-08-08T13:55:25;23.00;99.90
46608;DHT22;32330;51.936;7.184;2023-08-08T13:57:52;22.60;99.90
46608;DHT22;32330;51.936;7.184;2023-08-08T14:00:20;22.70;99.90
46608;DHT22;32330;51.936;7.184;2023-08-08T14:02:48;22.50;99.90
46608;DHT22;32330;51.936;7.184;2023-08-08T14:05:15;22.50;99.90
46608;DHT22;32330;51.936;7.184;2023-08-08T14:07:42;22.40;99.90
46608;DHT22;32330;51.936;7.184;2023-08-08T14:10:09;22.60;99.90
46608;DHT22;32330;51.936;7.184;2023-08-08T14:12:36;22.50;99.90
46608;DHT22;32330;51.936;7.184;2023-08-08T14:15:05;22.80;99.90
46608;DHT22;32330;51.936;7.184;2023-08-08T14:17:32;23.10;99.90
46608;DHT22;32330;51.936;7.184;2023-08-08T14:20:00;22.60;99.90
46608;DHT22;32330;51.936;7.184;2023-08-08T14:22:27;22.10;99.90
46608;DHT22;32330;51.936;7.184;2023-08-08T14:24:54;21.90;99.90
46608;DHT22;32330;51.936;7.184;2023-08-08T14:27:21;21.80;99.90
46608;DHT22;32330;51.936;7.184;2023-08-08T14:29:48;21.70;99.90
46608;DHT22;32330;51.936;7.184;2023-08-08T14:32:15;21.70;99.90
46608;DHT22;32330;51.936;7.184;2023-08-08T14:34:42;21.80;99.90
46608;DHT22;32330;51.936;7.184;2023-08-08T14:37:11;21.80;99.90
46608;DHT22;32330;51.936;7.184;2023-08-08T14:39:37;21.80;99.90
46608;DHT22;32330;51.936;7.184;2023-08-08T14:42:05;21.60;99.90
46608;DHT22;32330;51.936;7.184;2023-08-08T14:44:32;21.60;99.90
46608;DHT22;32330;51.936;7.184;2023-08-08T14:46:59;21.50;99.90
46608;DHT22;32330;51.936;7.184;2023-08-08T14:49:26;21.40;99.90
46608;DHT22;32330;51.936;7.184;2023-08-08T14:51:53;21.50;99.90
46608;DHT22;32330;51.936;7.184;2023-08-08T14:54:21;21.40;99.90
46608;DHT22;32330;51.936;7.184;2023-08-08T14:56:48;21.50;99.90
46608;DHT22;32330;51.936;7.184;2023-08-08T14:59:16;21.50;99.90
46608;DHT22;32330;51.936;7.184;2023-08-08T15:01:43;21.40;99.90
46608;DHT22;32330;51.936;7.184;2023-08-08T15:04:10;21.30;99.90
46608;DHT22;32330;51.936;7.184;2023-08-08T15:06:37;21.20;99.90
46608;DHT22;32330;51.936;7.184;2023-08-08T15:09:04;21.30;99.90
46608;DHT22;32330;51.936;7.184;2023-08-08T15:11:33;21.20;99.90
46608;DHT22;32330;51.936;7.184;2023-08-08T15:13:59;20.80;99.90
46608;DHT22;32330;51.936;7.184;2023-08-08T15:16:26;20.80;99.90
46608;DHT22;32330;51.936;7.184;2023-08-08T15:18:54;20.80;99.90
46608;DHT22;32330;51.936;7.184;2023-08-08T15:21:21;20.90;99.90
46608;DHT22;32330;51.936;7.184;2023-08-08T15:23:48;21.10;99.90
46608;DHT22;32330;51.936;7.184;2023-08-08T15:26:16;21.10;99.90
46608;DHT22;32330;51.936;7.184;2023-08-08T15:28:47;21.30;99.90
46608;DHT22;32330;51.936;7.184;2023-08-08T15:31:14;21.00;99.90
46608;DHT22;32330;51.936;7.184;2023-08-08T15:33:41;21.00;99.90
46608;DHT22;32330;51.936;7.184;2023-08-08T15:36:08;20.90;99.90
46608;DHT22;32330;51.936;7.184;2023-08-08T15:38:35;20.80;99.90
46608;DHT22;32330;51.936;7.184;2023-08-08T15:41:02;20.80;99.90
46608;DHT22;32330;51.936;7.184;2023-08-08T15:43:29;21.20;99.90
46608;DHT22;32330;51.936;7.184;2023-08-08T15:45:57;21.60;99.90
46608;DHT22;32330;51.936;7.184;2023-08-08T15:48:24;21.10;99.90
46608;DHT22;32330;51.936;7.184;2023-08-08T15:50:51;20.90;99.90
46608;DHT22;32330;51.936;7.184;2023-08-08T15:53:18;20.70;99.90
46608;DHT22;32330;51.936;7.184;2023-08-08T15:55:45;20.80;99.90
46608;DHT22;32330;51.936;7.184;2023-08-08T15:58:12;20.90;99.90
46608;DHT22;32330;51.936;7.184;2023-08-08T16:00:39;21.30;99.90
46608;DHT22;32330;51.936;7.184;2023-08-08T16:03:08;21.30;99.90
46608;DHT22;32330;51.936;7.184;2023-08-08T16:05:35;21.60;99.90
46608;DHT22;32330;51.936;7.184;2023-08-08T16:08:03;21.40;99.90
46608;DHT22;32330;51.936;7.184;2023-08-08T16:10:32;21.50;99.90
46608;DHT22;32330;51.936;7.184;2023-08-08T16:12:59;21.50;99.90
46608;DHT22;32330;51.936;7.184;2023-08-08T16:15:26;21.70;99.90
46608;DHT22;32330;51.936;7.184;2023-08-08T16:17:53;21.70;99.90
46608;DHT22;32330;51.936;7.184;2023-08-08T16:23:40;21.30;99.90
46608;DHT22;32330;51.936;7.184;2023-08-08T16:26:07;21.30;99.90
46608;DHT22;32330;51.936;7.184;2023-08-08T16:28:34;21.20;99.90
46608;DHT22;32330;51.936;7.184;2023-08-08T16:31:01;21.30;99.90
46608;DHT22;32330;51.936;7.184;2023-08-08T16:33:28;21.00;99.90
46608;DHT22;32330;51.936;7.184;2023-08-08T16:35:55;20.80;99.90
46608;DHT22;32330;51.936;7.184;2023-08-08T16:38:23;20.70;99.90
46608;DHT22;32330;51.936;7.184;2023-08-08T16:40:51;20.50;99.90
46608;DHT22;32330;51.936;7.184;2023-08-08T16:43:18;20.40;99.90
46608;DHT22;32330;51.936;7.184;2023-08-08T16:45:45;20.20;99.90
46608;DHT22;32330;51.936;7.184;2023-08-08T16:48:12;20.20;99.90
46608;DHT22;32330;51.936;7.184;2023-08-08T16:50:39;20.10;99.90
46608;DHT22;32330;51.936;7.184;2023-08-08T16:53:05;20.00;99.90
46608;DHT22;32330;51.936;7.184;2023-08-08T16:55:33;20.20;99.90
46608;DHT22;32330;51.936;7.184;2023-08-08T16:58:01;20.20;99.90
46608;DHT22;32330;51.936;7.184;2023-08-08T17:00:28;20.30;99.90
46608;DHT22;32330;51.936;7.184;2023-08-08T17:02:56;20.40;99.90
46608;DHT22;32330;51.936;7.184;2023-08-08T17:05:23;20.60;99.90
46608;DHT22;32330;51.936;7.184;2023-08-08T17:07:50;20.30;99.90
46608;DHT22;32330;51.936;7.184;2023-08-08T17:10:17;20.20;99.90
46608;DHT22;32330;51.936;7.184;2023-08-08T17:12:44;20.10;99.90
46608;DHT22;32330;51.936;7.184;2023-08-08T17:15:12;20.00;99.90
46608;DHT22;32330;51.936;7.184;2023-08-08T17:17:39;20.10;99.90
46608;DHT22;32330;51.936;7.184;2023-08-08T17:20:07;20.00;99.90
46608;DHT22;32330;51.936;7.184;2023-08-08T17:22:35;20.00;99.90
46608;DHT22;32330;51.936;7.184;2023-08-08T17:25:02;19.90;99.90
46608;DHT22;32330;51.936;7.184;2023-08-08T17:27:29;19.80;99.90
46608;DHT22;32330;51.936;7.184;2023-08-08T17:30:01;19.70;99.90
46608;DHT22;32330;51.936;7.184;2023-08-08T17:32:30;19.70;99.90
46608;DHT22;32330;51.936;7.184;2023-08-08T17:34:57;19.80;99.90
46608;DHT22;32330;51.936;7.184;2023-08-08T17:37:24;19.70;99.90
46608;DHT22;32330;51.936;7.184;2023-08-08T17:39:51;19.70;99.90
46608;DHT22;32330;51.936;7.184;2023-08-08T17:42:18;19.60;99.90
46608;DHT22;32330;51.936;7.184;2023-08-08T17:44:44;19.70;1.00
46608;DHT22;32330;51.936;7.184;2023-08-08T17:47:11;19.60;1.00
46608;DHT22;32330;51.936;7.184;2023-08-08T17:49:41;19.50;1.00
46608;DHT22;32330;51.936;7.184;2023-08-08T17:52:08;19.50;1.00
46608;DHT22;32330;51.936;7.184;2023-08-08T17:54:35;19.40;1.00
46608;DHT22;32330;51.936;7.184;2023-08-08T17:57:02;19.20;1.00
46608;DHT22;32330;51.936;7.184;2023-08-08T17:59:29;19.20;1.00
46608;DHT22;32330;51.936;7.184;2023-08-08T18:01:56;19.10;59.90
46608;DHT22;32330;51.936;7.184;2023-08-08T18:04:23;19.10;78.30
46608;DHT22;32330;51.936;7.184;2023-08-08T18:06:52;19.10;99.90
46608;DHT22;32330;51.936;7.184;2023-08-08T18:09:19;19.00;99.90
46608;DHT22;32330;51.936;7.184;2023-08-08T18:11:47;19.00;99.90
46608;DHT22;32330;51.936;7.184;2023-08-08T18:14:14;19.00;99.90
46608;DHT22;32330;51.936;7.184;2023-08-08T18:16:41;18.80;99.90
46608;DHT22;32330;51.936;7.184;2023-08-08T18:19:08;18.80;99.90
46608;DHT22;32330;51.936;7.184;2023-08-08T18:21:35;18.80;99.90
46608;DHT22;32330;51.936;7.184;2023-08-08T18:24:05;18.80;99.90
46608;DHT22;32330;51.936;7.184;2023-08-08T18:26:32;18.70;99.90
46608;DHT22;32330;51.936;7.184;2023-08-08T18:28:59;18.70;99.90
46608;DHT22;32330;51.936;7.184;2023-08-08T18:31:26;18.60;99.90
46608;DHT22;32330;51.936;7.184;2023-08-08T18:33:57;18.60;99.90
46608;DHT22;32330;51.936;7.184;2023-08-08T18:36:24;18.60;99.90
46608;DHT22;32330;51.936;7.184;2023-08-08T18:38:51;18.50;99.90
46608;DHT22;32330;51.936;7.184;2023-08-08T18:41:20;18.40;99.90
46608;DHT22;32330;51.936;7.184;2023-08-08T18:43:47;18.40;99.90
46608;DHT22;32330;51.936;7.184;2023-08-08T18:46:14;18.30;99.90
46608;DHT22;32330;51.936;7.184;2023-08-08T18:48:43;18.30;7.80
46608;DHT22;32330;51.936;7.184;2023-08-08T18:51:09;18.20;1.00
46608;DHT22;32330;51.936;7.184;2023-08-08T18:53:36;18.20;1.00
46608;DHT22;32330;51.936;7.184;2023-08-08T18:56:04;18.20;99.90
46608;DHT22;32330;51.936;7.184;2023-08-08T18:58:32;18.20;99.90
46608;DHT22;32330;51.936;7.184;2023-08-08T19:00:59;18.20;99.90
46608;DHT22;32330;51.936;7.184;2023-08-08T19:03:26;18.10;99.90
46608;DHT22;32330;51.936;7.184;2023-08-08T19:05:53;18.10;21.20
46608;DHT22;32330;51.936;7.184;2023-08-08T19:08:20;18.00;1.00
46608;DHT22;32330;51.936;7.184;2023-08-08T19:10:47;17.80;99.90
46608;DHT22;32330;51.936;7.184;2023-08-08T19:13:13;17.90;99.90
46608;DHT22;32330;51.936;7.184;2023-08-08T19:15:42;17.80;99.90
46608;DHT22;32330;51.936;7.184;2023-08-08T19:18:09;17.70;14.60
46608;DHT22;32330;51.936;7.184;2023-08-08T19:20:37;17.60;3.60
46608;DHT22;32330;51.936;7.184;2023-08-08T19:23:04;17.60;99.90
46608;DHT22;32330;51.936;7.184;2023-08-08T19:25:31;17.50;99.90